sensor_id;sensor_type;location;lat;lon;timestamp;P1;durP1;ratioP1;P2;durP2;ratioP2
15153;SDS011;7677;41.896;25.004;2023-03-21T00:00:17;1.90;;;1.73;;
15153;SDS011;7677;41.896;25.004;2023-03-21T00:02:49;2.27;;;1.37;;
15153;SDS011;7677;41.896;25.004;2023-03-21T00:05:17;2.27;;;1.87;;
15153;SDS011;7677;41.896;25.004;2023-03-21T00:07:47;2.53;;;2.03;;
15153;SDS011;7677;41.896;25.004;2023-03-21T00:10:14;2.00;;;1.80;;
15153;SDS011;7677;41.896;25.004;2023-03-21T00:12:45;2.40;;;1.97;;
15153;SDS011;7677;41.896;25.004;2023-03-21T00:15:24;3.80;;;1.63;;
15153;SDS011;7677;41.896;25.004;2023-03-21T00:17:57;1.40;;;1.30;;
15153;SDS011;7677;41.896;25.004;2023-03-21T00:20:27;1.40;;;1.30;;
15153;SDS011;7677;41.896;25.004;2023-03-21T00:22:57;3.30;;;1.90;;
15153;SDS011;7677;41.896;25.004;2023-03-21T00:25:24;1.90;;;1.80;;
15153;SDS011;7677;41.896;25.004;2023-03-21T00:27:54;1.93;;;1.83;;
15153;SDS011;7677;41.896;25.004;2023-03-21T00:30:21;1.70;;;1.60;;
15153;SDS011;7677;41.896;25.004;2023-03-21T00:32:50;1.80;;;1.70;;
15153;SDS011;7677;41.896;25.004;2023-03-21T00:35:19;2.40;;;2.20;;
15153;SDS011;7677;41.896;25.004;2023-03-21T00:37:46;2.50;;;1.80;;
15153;SDS011;7677;41.896;25.004;2023-03-21T00:40:15;2.10;;;1.90;;
15153;SDS011;7677;41.896;25.004;2023-03-21T00:42:45;3.63;;;2.50;;
15153;SDS011;7677;41.896;25.004;2023-03-21T00:45:12;4.50;;;2.70;;
15153;SDS011;7677;41.896;25.004;2023-03-21T00:47:43;5.53;;;2.83;;
15153;SDS011;7677;41.896;25.004;2023-03-21T00:50:10;6.70;;;3.50;;
15153;SDS011;7677;41.896;25.004;2023-03-21T00:52:39;4.53;;;2.87;;
15153;SDS011;7677;41.896;25.004;2023-03-21T00:55:09;5.53;;;3.30;;
15153;SDS011;7677;41.896;25.004;2023-03-21T00:57:40;4.33;;;3.23;;
15153;SDS011;7677;41.896;25.004;2023-03-21T01:00:10;5.83;;;3.57;;
15153;SDS011;7677;41.896;25.004;2023-03-21T01:02:42;5.90;;;3.70;;
15153;SDS011;7677;41.896;25.004;2023-03-21T01:05:22;6.47;;;3.83;;
15153;SDS011;7677;41.896;25.004;2023-03-21T02:49:43;2.73;;;2.00;;
15153;SDS011;7677;41.896;25.004;2023-03-21T09:39:38;11.97;;;6.80;;
15153;SDS011;7677;41.896;25.004;2023-03-21T09:42:36;9.30;;;6.00;;
15153;SDS011;7677;41.896;25.004;2023-03-21T09:55:11;8.83;;;6.63;;
15153;SDS011;7677;41.896;25.004;2023-03-21T09:57:44;9.50;;;6.50;;
15153;SDS011;7677;41.896;25.004;2023-03-21T10:00:15;7.97;;;6.00;;
15153;SDS011;7677;41.896;25.004;2023-03-21T10:02:47;8.17;;;6.23;;
15153;SDS011;7677;41.896;25.004;2023-03-21T10:05:17;8.40;;;6.70;;
15153;SDS011;7677;41.896;25.004;2023-03-21T10:07:48;10.37;;;7.20;;
15153;SDS011;7677;41.896;25.004;2023-03-21T10:10:20;12.80;;;7.50;;
15153;SDS011;7677;41.896;25.004;2023-03-21T10:12:49;7.83;;;6.10;;
15153;SDS011;7677;41.896;25.004;2023-03-21T10:15:17;9.77;;;6.50;;
15153;SDS011;7677;41.896;25.004;2023-03-21T10:17:48;11.47;;;6.33;;
15153;SDS011;7677;41.896;25.004;2023-03-21T10:20:20;10.17;;;7.17;;
15153;SDS011;7677;41.896;25.004;2023-03-21T10:22:49;14.03;;;7.83;;
15153;SDS011;7677;41.896;25.004;2023-03-21T10:25:17;12.70;;;6.67;;
15153;SDS011;7677;41.896;25.004;2023-03-21T10:27:52;8.80;;;6.47;;
15153;SDS011;7677;41.896;25.004;2023-03-21T10:30:33;12.77;;;7.60;;
15153;SDS011;7677;41.896;25.004;2023-03-21T10:33:03;8.60;;;6.20;;
15153;SDS011;7677;41.896;25.004;2023-03-21T10:35:33;8.57;;;5.70;;
15153;SDS011;7677;41.896;25.004;2023-03-21T10:38:02;8.87;;;7.07;;
15153;SDS011;7677;41.896;25.004;2023-03-21T10:40:31;10.20;;;6.37;;
15153;SDS011;7677;41.896;25.004;2023-03-21T10:43:14;9.27;;;6.63;;
15153;SDS011;7677;41.896;25.004;2023-03-21T10:45:43;10.93;;;5.60;;
15153;SDS011;7677;41.896;25.004;2023-03-21T10:48:11;9.40;;;6.70;;
15153;SDS011;7677;41.896;25.004;2023-03-21T10:50:39;8.30;;;6.00;;
15153;SDS011;7677;41.896;25.004;2023-03-21T10:53:14;8.80;;;6.57;;
15153;SDS011;7677;41.896;25.004;2023-03-21T10:55:46;8.43;;;5.60;;
15153;SDS011;7677;41.896;25.004;2023-03-21T10:58:14;7.87;;;5.60;;
15153;SDS011;7677;41.896;25.004;2023-03-21T11:00:51;8.17;;;6.33;;
15153;SDS011;7677;41.896;25.004;2023-03-21T11:03:22;8.90;;;5.70;;
15153;SDS011;7677;41.896;25.004;2023-03-21T11:05:56;7.30;;;5.67;;
15153;SDS011;7677;41.896;25.004;2023-03-21T11:08:26;8.70;;;6.33;;
15153;SDS011;7677;41.896;25.004;2023-03-21T11:10:59;7.40;;;5.57;;
15153;SDS011;7677;41.896;25.004;2023-03-21T11:13:32;8.23;;;6.47;;
15153;SDS011;7677;41.896;25.004;2023-03-21T11:16:04;13.07;;;6.57;;
15153;SDS011;7677;41.896;25.004;2023-03-21T11:18:33;7.80;;;5.67;;
15153;SDS011;7677;41.896;25.004;2023-03-21T11:21:06;8.83;;;5.93;;
15153;SDS011;7677;41.896;25.004;2023-03-21T11:23:36;7.43;;;5.47;;
15153;SDS011;7677;41.896;25.004;2023-03-21T11:26:09;6.53;;;5.17;;
15153;SDS011;7677;41.896;25.004;2023-03-21T11:28:37;6.57;;;5.30;;
15153;SDS011;7677;41.896;25.004;2023-03-21T11:31:06;6.70;;;5.30;;
15153;SDS011;7677;41.896;25.004;2023-03-21T11:33:34;7.23;;;5.93;;
15153;SDS011;7677;41.896;25.004;2023-03-21T11:36:05;7.73;;;5.77;;
15153;SDS011;7677;41.896;25.004;2023-03-21T11:38:35;8.80;;;5.73;;
15153;SDS011;7677;41.896;25.004;2023-03-21T11:41:04;7.03;;;5.53;;
15153;SDS011;7677;41.896;25.004;2023-03-21T11:43:36;7.90;;;5.43;;
15153;SDS011;7677;41.896;25.004;2023-03-21T11:46:05;7.03;;;4.93;;
15153;SDS011;7677;41.896;25.004;2023-03-21T11:48:34;6.97;;;5.80;;
15153;SDS011;7677;41.896;25.004;2023-03-21T11:51:06;7.90;;;5.23;;
15153;SDS011;7677;41.896;25.004;2023-03-21T11:53:39;6.50;;;5.13;;
15153;SDS011;7677;41.896;25.004;2023-03-21T11:56:14;5.43;;;4.93;;
15153;SDS011;7677;41.896;25.004;2023-03-21T11:58:52;10.17;;;6.20;;
15153;SDS011;7677;41.896;25.004;2023-03-21T12:01:30;7.57;;;5.83;;
15153;SDS011;7677;41.896;25.004;2023-03-21T12:04:02;9.43;;;5.43;;
15153;SDS011;7677;41.896;25.004;2023-03-21T12:06:34;7.23;;;5.43;;
15153;SDS011;7677;41.896;25.004;2023-03-21T12:09:13;6.87;;;5.87;;
15153;SDS011;7677;41.896;25.004;2023-03-21T12:11:49;8.53;;;6.53;;
15153;SDS011;7677;41.896;25.004;2023-03-21T12:14:23;6.63;;;5.23;;
15153;SDS011;7677;41.896;25.004;2023-03-21T12:17:01;6.00;;;4.90;;
15153;SDS011;7677;41.896;25.004;2023-03-21T12:19:52;9.67;;;6.50;;
15153;SDS011;7677;41.896;25.004;2023-03-21T12:22:31;9.57;;;6.33;;
15153;SDS011;7677;41.896;25.004;2023-03-21T12:25:04;7.33;;;5.10;;
15153;SDS011;7677;41.896;25.004;2023-03-21T12:27:38;8.10;;;5.80;;
15153;SDS011;7677;41.896;25.004;2023-03-21T12:30:13;10.30;;;7.23;;
15153;SDS011;7677;41.896;25.004;2023-03-21T12:32:59;8.93;;;6.47;;
15153;SDS011;7677;41.896;25.004;2023-03-21T12:35:37;8.97;;;6.30;;
15153;SDS011;7677;41.896;25.004;2023-03-21T12:38:31;7.80;;;6.50;;
15153;SDS011;7677;41.896;25.004;2023-03-21T12:41:09;10.63;;;7.77;;
15153;SDS011;7677;41.896;25.004;2023-03-21T12:43:49;8.60;;;6.43;;
15153;SDS011;7677;41.896;25.004;2023-03-21T12:46:23;8.00;;;6.53;;
15153;SDS011;7677;41.896;25.004;2023-03-21T12:48:55;11.30;;;8.30;;
15153;SDS011;7677;41.896;25.004;2023-03-21T12:51:25;12.80;;;8.53;;
15153;SDS011;7677;41.896;25.004;2023-03-21T12:53:58;12.20;;;8.07;;
15153;SDS011;7677;41.896;25.004;2023-03-21T12:56:32;11.77;;;8.00;;
15153;SDS011;7677;41.896;25.004;2023-03-21T12:59:05;9.70;;;7.53;;
15153;SDS011;7677;41.896;25.004;2023-03-21T13:01:40;8.33;;;6.47;;
15153;SDS011;7677;41.896;25.004;2023-03-21T13:04:25;8.73;;;6.80;;
15153;SDS011;7677;41.896;25.004;2023-03-21T13:06:58;9.53;;;6.67;;
15153;SDS011;7677;41.896;25.004;2023-03-21T13:09:28;14.23;;;8.23;;
15153;SDS011;7677;41.896;25.004;2023-03-21T13:12:02;8.00;;;6.73;;
15153;SDS011;7677;41.896;25.004;2023-03-21T13:14:41;8.43;;;6.37;;
15153;SDS011;7677;41.896;25.004;2023-03-21T13:17:17;13.27;;;8.83;;
15153;SDS011;7677;41.896;25.004;2023-03-21T13:19:49;11.80;;;7.47;;
15153;SDS011;7677;41.896;25.004;2023-03-21T13:22:21;11.37;;;7.43;;
15153;SDS011;7677;41.896;25.004;2023-03-21T13:24:56;10.73;;;7.40;;
15153;SDS011;7677;41.896;25.004;2023-03-21T13:27:25;10.17;;;7.00;;
15153;SDS011;7677;41.896;25.004;2023-03-21T13:29:57;11.80;;;9.77;;
15153;SDS011;7677;41.896;25.004;2023-03-21T13:32:28;12.73;;;8.93;;
15153;SDS011;7677;41.896;25.004;2023-03-21T13:34:57;15.20;;;9.37;;
15153;SDS011;7677;41.896;25.004;2023-03-21T13:37:28;16.80;;;9.70;;
15153;SDS011;7677;41.896;25.004;2023-03-21T13:39:58;34.70;;;17.30;;
15153;SDS011;7677;41.896;25.004;2023-03-21T13:42:33;26.73;;;13.70;;
15153;SDS011;7677;41.896;25.004;2023-03-21T13:45:03;14.07;;;7.90;;
15153;SDS011;7677;41.896;25.004;2023-03-21T13:47:37;11.00;;;8.27;;
15153;SDS011;7677;41.896;25.004;2023-03-21T13:53:18;13.67;;;7.93;;
15153;SDS011;7677;41.896;25.004;2023-03-21T13:55:58;9.90;;;7.33;;
15153;SDS011;7677;41.896;25.004;2023-03-21T13:58:52;10.43;;;7.60;;
15153;SDS011;7677;41.896;25.004;2023-03-21T14:01:28;11.67;;;7.70;;
15153;SDS011;7677;41.896;25.004;2023-03-21T14:04:01;9.77;;;6.73;;
15153;SDS011;7677;41.896;25.004;2023-03-21T14:06:37;13.40;;;7.33;;
15153;SDS011;7677;41.896;25.004;2023-03-21T14:09:06;9.73;;;7.13;;
15153;SDS011;7677;41.896;25.004;2023-03-21T14:11:33;10.20;;;7.07;;
15153;SDS011;7677;41.896;25.004;2023-03-21T14:14:02;9.93;;;7.07;;
15153;SDS011;7677;41.896;25.004;2023-03-21T14:16:30;10.00;;;6.57;;
15153;SDS011;7677;41.896;25.004;2023-03-21T14:19:00;10.23;;;6.93;;
15153;SDS011;7677;41.896;25.004;2023-03-21T14:21:30;10.37;;;7.07;;
15153;SDS011;7677;41.896;25.004;2023-03-21T14:23:59;9.90;;;7.47;;
15153;SDS011;7677;41.896;25.004;2023-03-21T14:26:28;9.73;;;7.10;;
15153;SDS011;7677;41.896;25.004;2023-03-21T14:28:56;10.80;;;6.87;;
15153;SDS011;7677;41.896;25.004;2023-03-21T14:31:24;9.77;;;8.07;;
15153;SDS011;7677;41.896;25.004;2023-03-21T14:33:52;9.57;;;7.67;;
15153;SDS011;7677;41.896;25.004;2023-03-21T14:36:24;13.37;;;6.67;;
15153;SDS011;7677;41.896;25.004;2023-03-21T14:38:54;8.87;;;6.40;;
15153;SDS011;7677;41.896;25.004;2023-03-21T14:41:30;11.63;;;7.40;;
15153;SDS011;7677;41.896;25.004;2023-03-21T14:46:53;8.93;;;7.10;;
15153;SDS011;7677;41.896;25.004;2023-03-21T14:49:26;10.77;;;8.10;;
15153;SDS011;7677;41.896;25.004;2023-03-21T14:51:57;15.20;;;8.30;;
15153;SDS011;7677;41.896;25.004;2023-03-21T14:54:28;10.57;;;8.07;;
15153;SDS011;7677;41.896;25.004;2023-03-21T14:56:57;13.20;;;7.93;;
15153;SDS011;7677;41.896;25.004;2023-03-21T14:59:28;9.63;;;7.40;;
15153;SDS011;7677;41.896;25.004;2023-03-21T15:01:58;12.97;;;8.40;;
15153;SDS011;7677;41.896;25.004;2023-03-21T15:04:26;10.97;;;6.63;;
15153;SDS011;7677;41.896;25.004;2023-03-21T15:06:56;12.10;;;8.57;;
15153;SDS011;7677;41.896;25.004;2023-03-21T15:09:26;11.20;;;8.30;;
15153;SDS011;7677;41.896;25.004;2023-03-21T15:11:56;10.47;;;7.97;;
15153;SDS011;7677;41.896;25.004;2023-03-21T15:14:25;11.33;;;8.37;;
15153;SDS011;7677;41.896;25.004;2023-03-21T15:16:56;10.00;;;6.93;;
15153;SDS011;7677;41.896;25.004;2023-03-21T15:19:28;12.67;;;7.63;;
15153;SDS011;7677;41.896;25.004;2023-03-21T15:21:59;13.13;;;7.40;;
15153;SDS011;7677;41.896;25.004;2023-03-21T15:24:31;15.07;;;8.10;;
15153;SDS011;7677;41.896;25.004;2023-03-21T15:27:01;13.47;;;8.20;;
15153;SDS011;7677;41.896;25.004;2023-03-21T15:29:29;10.83;;;7.57;;
15153;SDS011;7677;41.896;25.004;2023-03-21T15:32:16;8.37;;;7.40;;
15153;SDS011;7677;41.896;25.004;2023-03-21T15:34:47;11.30;;;7.00;;
15153;SDS011;7677;41.896;25.004;2023-03-21T15:37:17;10.37;;;8.10;;
15153;SDS011;7677;41.896;25.004;2023-03-21T15:39:48;10.80;;;6.87;;
15153;SDS011;7677;41.896;25.004;2023-03-21T15:42:26;9.53;;;8.10;;
15153;SDS011;7677;41.896;25.004;2023-03-21T15:44:55;11.20;;;6.93;;
15153;SDS011;7677;41.896;25.004;2023-03-21T15:47:42;12.63;;;8.30;;
15153;SDS011;7677;41.896;25.004;2023-03-21T15:50:21;14.60;;;6.67;;
15153;SDS011;7677;41.896;25.004;2023-03-21T15:52:53;9.30;;;6.77;;
15153;SDS011;7677;41.896;25.004;2023-03-21T15:55:21;9.47;;;6.87;;
15153;SDS011;7677;41.896;25.004;2023-03-21T15:57:52;11.40;;;6.93;;
15153;SDS011;7677;41.896;25.004;2023-03-21T16:00:22;10.93;;;7.30;;
15153;SDS011;7677;41.896;25.004;2023-03-21T16:02:53;10.83;;;7.50;;
15153;SDS011;7677;41.896;25.004;2023-03-21T16:05:24;9.63;;;7.03;;
15153;SDS011;7677;41.896;25.004;2023-03-21T16:07:55;12.13;;;7.93;;
15153;SDS011;7677;41.896;25.004;2023-03-21T16:10:25;13.10;;;8.10;;
15153;SDS011;7677;41.896;25.004;2023-03-21T16:12:55;12.23;;;8.60;;
15153;SDS011;7677;41.896;25.004;2023-03-21T16:15:23;12.03;;;7.60;;
15153;SDS011;7677;41.896;25.004;2023-03-21T16:17:51;12.30;;;7.50;;
15153;SDS011;7677;41.896;25.004;2023-03-21T16:20:20;11.43;;;7.03;;
15153;SDS011;7677;41.896;25.004;2023-03-21T16:22:50;10.43;;;7.33;;
15153;SDS011;7677;41.896;25.004;2023-03-21T16:25:32;11.27;;;6.77;;
15153;SDS011;7677;41.896;25.004;2023-03-21T16:28:00;8.40;;;6.83;;
15153;SDS011;7677;41.896;25.004;2023-03-21T16:30:27;11.63;;;7.63;;
15153;SDS011;7677;41.896;25.004;2023-03-21T16:32:54;9.57;;;6.40;;
15153;SDS011;7677;41.896;25.004;2023-03-21T16:35:21;8.30;;;5.40;;
15153;SDS011;7677;41.896;25.004;2023-03-21T16:37:50;8.60;;;6.13;;
15153;SDS011;7677;41.896;25.004;2023-03-21T16:40:21;9.73;;;6.33;;
15153;SDS011;7677;41.896;25.004;2023-03-21T16:42:53;8.37;;;6.37;;
15153;SDS011;7677;41.896;25.004;2023-03-21T16:45:20;7.00;;;6.33;;
15153;SDS011;7677;41.896;25.004;2023-03-21T16:47:48;9.60;;;6.10;;
15153;SDS011;7677;41.896;25.004;2023-03-21T16:50:18;9.10;;;6.87;;
15153;SDS011;7677;41.896;25.004;2023-03-21T16:52:48;10.97;;;6.77;;
15153;SDS011;7677;41.896;25.004;2023-03-21T16:55:15;10.33;;;6.93;;
15153;SDS011;7677;41.896;25.004;2023-03-21T16:57:43;8.37;;;6.43;;
15153;SDS011;7677;41.896;25.004;2023-03-21T17:00:13;7.20;;;5.87;;
15153;SDS011;7677;41.896;25.004;2023-03-21T17:02:43;9.37;;;6.67;;
15153;SDS011;7677;41.896;25.004;2023-03-21T17:05:10;9.43;;;6.83;;
15153;SDS011;7677;41.896;25.004;2023-03-21T17:07:38;7.67;;;6.00;;
15153;SDS011;7677;41.896;25.004;2023-03-21T17:10:11;10.20;;;6.20;;
15153;SDS011;7677;41.896;25.004;2023-03-21T17:12:42;7.93;;;7.00;;
15153;SDS011;7677;41.896;25.004;2023-03-21T17:15:09;12.07;;;7.37;;
15153;SDS011;7677;41.896;25.004;2023-03-21T17:17:38;8.30;;;6.63;;
15153;SDS011;7677;41.896;25.004;2023-03-21T17:20:10;12.20;;;6.77;;
15153;SDS011;7677;41.896;25.004;2023-03-21T17:22:42;10.53;;;7.23;;
15153;SDS011;7677;41.896;25.004;2023-03-21T17:25:09;9.20;;;6.20;;
15153;SDS011;7677;41.896;25.004;2023-03-21T17:27:37;7.33;;;6.20;;
15153;SDS011;7677;41.896;25.004;2023-03-21T17:30:08;10.40;;;6.87;;
15153;SDS011;7677;41.896;25.004;2023-03-21T17:32:44;8.63;;;6.83;;
15153;SDS011;7677;41.896;25.004;2023-03-21T17:35:11;12.37;;;7.43;;
15153;SDS011;7677;41.896;25.004;2023-03-21T17:37:38;12.40;;;7.40;;
15153;SDS011;7677;41.896;25.004;2023-03-21T17:40:06;7.97;;;6.87;;
15153;SDS011;7677;41.896;25.004;2023-03-21T17:42:36;10.37;;;7.77;;
15153;SDS011;7677;41.896;25.004;2023-03-21T17:45:04;9.07;;;6.30;;
15153;SDS011;7677;41.896;25.004;2023-03-21T17:47:32;9.37;;;6.97;;
15153;SDS011;7677;41.896;25.004;2023-03-21T17:50:01;7.33;;;6.30;;
15153;SDS011;7677;41.896;25.004;2023-03-21T17:52:28;9.33;;;6.73;;
15153;SDS011;7677;41.896;25.004;2023-03-21T17:54:56;10.27;;;5.97;;
15153;SDS011;7677;41.896;25.004;2023-03-21T17:57:24;10.23;;;6.27;;
15153;SDS011;7677;41.896;25.004;2023-03-21T17:59:51;15.27;;;6.87;;
15153;SDS011;7677;41.896;25.004;2023-03-21T18:02:18;9.57;;;6.90;;
15153;SDS011;7677;41.896;25.004;2023-03-21T18:04:45;9.03;;;6.27;;
15153;SDS011;7677;41.896;25.004;2023-03-21T18:07:14;11.03;;;7.63;;
15153;SDS011;7677;41.896;25.004;2023-03-21T18:09:41;8.43;;;6.40;;
15153;SDS011;7677;41.896;25.004;2023-03-21T18:12:20;9.23;;;6.70;;
15153;SDS011;7677;41.896;25.004;2023-03-21T18:14:48;9.47;;;5.63;;
15153;SDS011;7677;41.896;25.004;2023-03-21T18:17:15;9.70;;;6.83;;
15153;SDS011;7677;41.896;25.004;2023-03-21T18:19:45;9.47;;;6.63;;
15153;SDS011;7677;41.896;25.004;2023-03-21T18:22:24;10.57;;;6.20;;
15153;SDS011;7677;41.896;25.004;2023-03-21T18:24:52;8.17;;;5.63;;
15153;SDS011;7677;41.896;25.004;2023-03-21T18:27:20;7.57;;;6.10;;
15153;SDS011;7677;41.896;25.004;2023-03-21T18:29:47;9.17;;;6.67;;
15153;SDS011;7677;41.896;25.004;2023-03-21T18:32:14;7.77;;;6.23;;
15153;SDS011;7677;41.896;25.004;2023-03-21T18:34:41;10.43;;;6.27;;
15153;SDS011;7677;41.896;25.004;2023-03-21T18:37:08;7.50;;;6.03;;
15153;SDS011;7677;41.896;25.004;2023-03-21T18:39:37;6.53;;;5.57;;
15153;SDS011;7677;41.896;25.004;2023-03-21T18:42:05;8.17;;;5.93;;
15153;SDS011;7677;41.896;25.004;2023-03-21T18:44:40;8.60;;;6.17;;
15153;SDS011;7677;41.896;25.004;2023-03-21T18:47:09;8.33;;;6.00;;
15153;SDS011;7677;41.896;25.004;2023-03-21T18:49:37;5.73;;;4.97;;
15153;SDS011;7677;41.896;25.004;2023-03-21T18:52:06;15.90;;;7.47;;
15153;SDS011;7677;41.896;25.004;2023-03-21T18:54:40;7.83;;;6.40;;
15153;SDS011;7677;41.896;25.004;2023-03-21T18:57:07;8.93;;;6.30;;
15153;SDS011;7677;41.896;25.004;2023-03-21T18:59:35;9.20;;;6.77;;
15153;SDS011;7677;41.896;25.004;2023-03-21T19:02:03;7.13;;;5.67;;
15153;SDS011;7677;41.896;25.004;2023-03-21T19:04:31;9.47;;;6.07;;
15153;SDS011;7677;41.896;25.004;2023-03-21T19:07:00;11.03;;;6.67;;
15153;SDS011;7677;41.896;25.004;2023-03-21T19:09:28;10.57;;;6.87;;
15153;SDS011;7677;41.896;25.004;2023-03-21T19:11:57;9.30;;;7.13;;
15153;SDS011;7677;41.896;25.004;2023-03-21T19:14:24;9.83;;;7.93;;
15153;SDS011;7677;41.896;25.004;2023-03-21T19:16:52;11.03;;;7.60;;
15153;SDS011;7677;41.896;25.004;2023-03-21T19:19:31;9.90;;;7.43;;
15153;SDS011;7677;41.896;25.004;2023-03-21T19:22:03;12.17;;;7.37;;
15153;SDS011;7677;41.896;25.004;2023-03-21T19:24:31;11.00;;;7.70;;
15153;SDS011;7677;41.896;25.004;2023-03-21T19:26:59;13.27;;;8.67;;
15153;SDS011;7677;41.896;25.004;2023-03-21T19:29:27;8.33;;;6.50;;
15153;SDS011;7677;41.896;25.004;2023-03-21T19:31:54;8.03;;;6.57;;
15153;SDS011;7677;41.896;25.004;2023-03-21T19:34:22;10.27;;;6.87;;
15153;SDS011;7677;41.896;25.004;2023-03-21T19:36:49;9.63;;;6.83;;
15153;SDS011;7677;41.896;25.004;2023-03-21T19:39:17;9.23;;;7.23;;
15153;SDS011;7677;41.896;25.004;2023-03-21T19:41:46;12.53;;;9.97;;
15153;SDS011;7677;41.896;25.004;2023-03-21T19:44:14;13.77;;;9.23;;
15153;SDS011;7677;41.896;25.004;2023-03-21T19:46:50;15.87;;;8.40;;
15153;SDS011;7677;41.896;25.004;2023-03-21T19:49:17;10.87;;;7.63;;
15153;SDS011;7677;41.896;25.004;2023-03-21T19:51:46;13.00;;;7.93;;
15153;SDS011;7677;41.896;25.004;2023-03-21T19:54:14;14.07;;;9.37;;
15153;SDS011;7677;41.896;25.004;2023-03-21T19:56:42;14.57;;;10.23;;
15153;SDS011;7677;41.896;25.004;2023-03-21T19:59:10;18.20;;;11.10;;
15153;SDS011;7677;41.896;25.004;2023-03-21T20:01:39;23.30;;;11.37;;
15153;SDS011;7677;41.896;25.004;2023-03-21T20:04:07;18.43;;;11.80;;
15153;SDS011;7677;41.896;25.004;2023-03-21T20:06:34;15.57;;;10.10;;
15153;SDS011;7677;41.896;25.004;2023-03-21T20:09:05;16.40;;;10.93;;
15153;SDS011;7677;41.896;25.004;2023-03-21T20:11:32;16.30;;;11.23;;
15153;SDS011;7677;41.896;25.004;2023-03-21T20:13:59;14.33;;;10.67;;
15153;SDS011;7677;41.896;25.004;2023-03-21T20:16:28;14.63;;;10.10;;
15153;SDS011;7677;41.896;25.004;2023-03-21T20:18:58;17.10;;;11.53;;
15153;SDS011;7677;41.896;25.004;2023-03-21T20:21:26;17.60;;;11.83;;
15153;SDS011;7677;41.896;25.004;2023-03-21T20:23:53;18.53;;;12.77;;
15153;SDS011;7677;41.896;25.004;2023-03-21T20:26:31;21.13;;;13.23;;
15153;SDS011;7677;41.896;25.004;2023-03-21T20:28:58;21.40;;;13.87;;
15153;SDS011;7677;41.896;25.004;2023-03-21T20:31:27;24.27;;;14.10;;
15153;SDS011;7677;41.896;25.004;2023-03-21T20:33:54;23.47;;;14.87;;
15153;SDS011;7677;41.896;25.004;2023-03-21T20:36:24;20.03;;;12.70;;
15153;SDS011;7677;41.896;25.004;2023-03-21T20:38:52;20.50;;;12.67;;
15153;SDS011;7677;41.896;25.004;2023-03-21T20:41:19;25.30;;;13.77;;
15153;SDS011;7677;41.896;25.004;2023-03-21T20:43:46;19.60;;;13.30;;
15153;SDS011;7677;41.896;25.004;2023-03-21T20:46:13;17.73;;;14.03;;
15153;SDS011;7677;41.896;25.004;2023-03-21T20:48:41;22.23;;;13.33;;
15153;SDS011;7677;41.896;25.004;2023-03-21T20:51:13;17.90;;;13.50;;
15153;SDS011;7677;41.896;25.004;2023-03-21T20:53:41;21.10;;;14.47;;
15153;SDS011;7677;41.896;25.004;2023-03-21T20:56:08;19.13;;;13.83;;
15153;SDS011;7677;41.896;25.004;2023-03-21T20:58:37;20.33;;;13.40;;
15153;SDS011;7677;41.896;25.004;2023-03-21T21:01:05;19.60;;;12.70;;
15153;SDS011;7677;41.896;25.004;2023-03-21T21:03:39;20.83;;;13.30;;
15153;SDS011;7677;41.896;25.004;2023-03-21T21:06:09;21.67;;;13.47;;
15153;SDS011;7677;41.896;25.004;2023-03-21T21:08:37;19.80;;;12.07;;
15153;SDS011;7677;41.896;25.004;2023-03-21T21:11:06;23.00;;;13.70;;
15153;SDS011;7677;41.896;25.004;2023-03-21T21:13:34;18.13;;;10.90;;
15153;SDS011;7677;41.896;25.004;2023-03-21T21:16:01;17.43;;;12.23;;
15153;SDS011;7677;41.896;25.004;2023-03-21T21:18:29;19.07;;;12.57;;
15153;SDS011;7677;41.896;25.004;2023-03-21T21:20:57;21.17;;;11.80;;
15153;SDS011;7677;41.896;25.004;2023-03-21T21:23:29;23.67;;;13.20;;
15153;SDS011;7677;41.896;25.004;2023-03-21T21:25:56;19.90;;;11.30;;
15153;SDS011;7677;41.896;25.004;2023-03-21T21:28:27;15.83;;;10.70;;
15153;SDS011;7677;41.896;25.004;2023-03-21T21:30:56;18.93;;;11.07;;
15153;SDS011;7677;41.896;25.004;2023-03-21T21:33:23;18.13;;;10.93;;
15153;SDS011;7677;41.896;25.004;2023-03-21T21:35:53;19.27;;;11.60;;
15153;SDS011;7677;41.896;25.004;2023-03-21T21:38:21;17.77;;;10.80;;
15153;SDS011;7677;41.896;25.004;2023-03-21T21:40:48;20.50;;;12.73;;
15153;SDS011;7677;41.896;25.004;2023-03-21T21:43:16;21.73;;;11.87;;
15153;SDS011;7677;41.896;25.004;2023-03-21T21:45:45;21.40;;;12.77;;
15153;SDS011;7677;41.896;25.004;2023-03-21T21:48:13;19.80;;;11.70;;
15153;SDS011;7677;41.896;25.004;2023-03-21T21:50:41;19.00;;;10.30;;
15153;SDS011;7677;41.896;25.004;2023-03-21T21:53:08;20.27;;;12.07;;
15153;SDS011;7677;41.896;25.004;2023-03-21T21:55:37;19.13;;;13.10;;
15153;SDS011;7677;41.896;25.004;2023-03-21T21:58:04;22.63;;;14.07;;
15153;SDS011;7677;41.896;25.004;2023-03-21T22:00:32;23.03;;;12.93;;
15153;SDS011;7677;41.896;25.004;2023-03-21T22:03:02;23.90;;;14.17;;
15153;SDS011;7677;41.896;25.004;2023-03-21T22:05:30;18.47;;;11.97;;
15153;SDS011;7677;41.896;25.004;2023-03-21T22:07:57;21.90;;;12.33;;
15153;SDS011;7677;41.896;25.004;2023-03-21T22:10:25;18.50;;;11.57;;
15153;SDS011;7677;41.896;25.004;2023-03-21T22:12:52;18.17;;;11.27;;
15153;SDS011;7677;41.896;25.004;2023-03-21T22:15:20;20.53;;;10.77;;
15153;SDS011;7677;41.896;25.004;2023-03-21T22:17:48;19.03;;;11.90;;
15153;SDS011;7677;41.896;25.004;2023-03-21T22:20:18;19.87;;;11.73;;
15153;SDS011;7677;41.896;25.004;2023-03-21T22:22:46;16.17;;;11.73;;
15153;SDS011;7677;41.896;25.004;2023-03-21T22:25:14;19.77;;;10.60;;
15153;SDS011;7677;41.896;25.004;2023-03-21T22:27:42;16.90;;;11.10;;
15153;SDS011;7677;41.896;25.004;2023-03-21T22:30:10;16.53;;;11.27;;
15153;SDS011;7677;41.896;25.004;2023-03-21T22:32:41;17.67;;;10.30;;
15153;SDS011;7677;41.896;25.004;2023-03-21T22:35:09;16.10;;;10.57;;
15153;SDS011;7677;41.896;25.004;2023-03-21T22:37:38;23.93;;;11.07;;
15153;SDS011;7677;41.896;25.004;2023-03-21T22:40:07;17.30;;;10.80;;
15153;SDS011;7677;41.896;25.004;2023-03-21T22:42:36;21.33;;;11.23;;
15153;SDS011;7677;41.896;25.004;2023-03-21T22:45:17;22.20;;;11.20;;
15153;SDS011;7677;41.896;25.004;2023-03-21T22:47:45;15.40;;;10.60;;
15153;SDS011;7677;41.896;25.004;2023-03-21T22:50:12;17.23;;;11.37;;
15153;SDS011;7677;41.896;25.004;2023-03-21T22:52:41;16.70;;;10.90;;
15153;SDS011;7677;41.896;25.004;2023-03-21T22:55:08;16.20;;;10.73;;
15153;SDS011;7677;41.896;25.004;2023-03-21T22:57:37;19.70;;;10.77;;
15153;SDS011;7677;41.896;25.004;2023-03-21T23:00:05;18.53;;;11.20;;
15153;SDS011;7677;41.896;25.004;2023-03-21T23:02:37;25.37;;;12.00;;
15153;SDS011;7677;41.896;25.004;2023-03-21T23:05:05;24.63;;;13.70;;
15153;SDS011;7677;41.896;25.004;2023-03-21T23:07:33;32.87;;;14.37;;
15153;SDS011;7677;41.896;25.004;2023-03-21T23:10:04;29.67;;;15.83;;
15153;SDS011;7677;41.896;25.004;2023-03-21T23:15:21;31.37;;;17.07;;
15153;SDS011;7677;41.896;25.004;2023-03-21T23:17:48;29.50;;;16.30;;
15153;SDS011;7677;41.896;25.004;2023-03-21T23:20:17;30.83;;;15.57;;
15153;SDS011;7677;41.896;25.004;2023-03-21T23:22:44;28.17;;;16.50;;
15153;SDS011;7677;41.896;25.004;2023-03-21T23:25:12;29.97;;;16.23;;
15153;SDS011;7677;41.896;25.004;2023-03-21T23:27:41;28.73;;;15.17;;
15153;SDS011;7677;41.896;25.004;2023-03-21T23:30:09;28.27;;;15.67;;
15153;SDS011;7677;41.896;25.004;2023-03-21T23:32:37;34.23;;;16.13;;
15153;SDS011;7677;41.896;25.004;2023-03-21T23:35:05;29.27;;;14.97;;
15153;SDS011;7677;41.896;25.004;2023-03-21T23:40:28;30.17;;;16.23;;
15153;SDS011;7677;41.896;25.004;2023-03-21T23:42:55;28.50;;;15.97;;
15153;SDS011;7677;41.896;25.004;2023-03-21T23:45:23;30.03;;;16.10;;